createdAt,value
2023-05-14T00:03:43.028Z,99780.13
2023-05-14T00:08:44.711Z,99747.03
2023-05-14T00:13:46.306Z,99790.75
2023-05-14T00:18:47.941Z,99724.56
2023-05-14T00:23:49.523Z,99775.25
2023-05-14T00:28:51.235Z,99751.31
2023-05-14T00:33:52.920Z,99725.63
2023-05-14T00:38:54.524Z,99692.34
2023-05-14T00:43:56.103Z,99746.16
2023-05-14T00:48:58.783Z,99756.22
2023-05-14T00:54:01.123Z,99738.69
2023-05-14T00:59:02.701Z,99726.53
2023-05-14T01:04:06.091Z,99660.75
2023-05-14T01:09:18.878Z,99731.72
2023-05-14T01:14:22.772Z,99767.72
2023-05-14T01:19:51.793Z,99765.03
2023-05-14T01:24:53.491Z,99707.56
2023-05-14T01:30:15.713Z,99762.44
2023-05-14T01:40:19.909Z,99786.09
2023-05-14T01:45:21.944Z,99773.88
2023-05-14T01:50:23.687Z,99783.19
2023-05-14T01:55:25.764Z,99816.31
2023-05-14T02:00:27.527Z,99814.47
2023-05-14T02:05:29.149Z,99805.13
2023-05-14T02:10:30.799Z,99807.97
2023-05-14T02:15:32.332Z,99798.94
2023-05-14T02:20:33.980Z,99818.06
2023-05-14T02:25:35.657Z,99798.25
2023-05-14T02:30:37.317Z,99773.63
2023-05-14T02:35:39.012Z,99792.16
2023-05-14T02:40:40.652Z,99784.88
2023-05-14T02:45:42.252Z,99822.75
2023-05-14T02:50:43.956Z,99832.19
2023-05-14T02:55:45.575Z,99803.28
2023-05-14T03:00:47.184Z,99807.97
2023-05-14T03:05:49.331Z,99832.00
2023-05-14T03:10:50.893Z,99816.81
2023-05-14T03:15:55.221Z,99814.38
2023-05-14T03:20:57.014Z,99807.19
2023-05-14T03:25:58.872Z,99750.34
2023-05-14T03:31:01.255Z,99813.97
2023-05-14T03:36:02.933Z,99773.09
2023-05-14T03:41:04.478Z,99820.88
2023-05-14T03:46:06.094Z,99788.16
2023-05-14T03:51:07.672Z,99815.84
2023-05-14T03:56:09.353Z,99834.94
2023-05-14T04:01:10.932Z,99819.59
2023-05-14T04:06:12.467Z,99831.66
2023-05-14T04:11:14.108Z,99797.81
2023-05-14T04:16:15.980Z,99809.16
2023-05-14T04:21:17.626Z,99841.59
2023-05-14T04:26:19.229Z,99839.16
2023-05-14T04:31:20.980Z,99836.97
2023-05-14T04:36:22.587Z,99721.16
2023-05-14T04:41:24.153Z,99827.38
2023-05-14T04:46:25.887Z,99851.09
2023-05-14T04:51:27.738Z,99813.16
2023-05-14T04:56:29.481Z,99816.00
2023-05-14T05:01:31.285Z,99827.59
2023-05-14T05:06:32.994Z,99839.84
2023-05-14T05:11:34.662Z,99824.22
2023-05-14T05:16:36.620Z,99813.00
2023-05-14T05:21:40.781Z,99832.44
2023-05-14T05:26:42.425Z,99847.53
2023-05-14T05:31:44.025Z,99852.81
2023-05-14T05:36:45.710Z,99764.09
2023-05-14T05:41:47.334Z,99848.59
2023-05-14T05:46:49.046Z,99855.66
2023-05-14T05:51:50.827Z,99842.16
2023-05-14T05:56:52.475Z,99840.16
2023-05-14T06:01:54.129Z,99814.59
2023-05-14T06:06:55.993Z,99838.94
2023-05-14T06:11:57.575Z,99772.47
2023-05-14T06:16:59.298Z,99791.97
2023-05-14T06:22:00.911Z,99784.34
2023-05-14T06:27:02.459Z,99813.31
2023-05-14T06:32:04.960Z,99812.41
2023-05-14T06:37:07.100Z,99807.03
2023-05-14T06:42:08.667Z,99791.47
2023-05-14T06:47:10.591Z,99805.25
2023-05-14T06:52:12.338Z,99779.50
2023-05-14T06:57:14.004Z,99797.72
2023-05-14T07:02:15.590Z,99799.25
2023-05-14T07:07:20.620Z,99787.81
2023-05-14T07:12:22.324Z,99785.16
2023-05-14T07:17:24.259Z,99791.81
2023-05-14T07:22:25.916Z,99803.78
2023-05-14T07:27:27.558Z,99756.63
2023-05-14T07:32:29.154Z,99802.88
2023-05-14T07:37:30.785Z,99738.00
2023-05-14T07:42:36.497Z,99702.28
2023-05-14T07:47:39.491Z,99710.38
2023-05-14T07:52:41.227Z,99673.34
2023-05-14T07:57:42.879Z,99697.31
2023-05-14T08:02:44.644Z,99651.34
2023-05-14T08:07:46.724Z,99672.28
2023-05-14T08:12:48.283Z,99707.16
2023-05-14T08:17:50.027Z,99695.47
2023-05-14T08:22:51.706Z,99647.66
2023-05-14T08:27:54.260Z,99679.28
2023-05-14T08:32:55.900Z,99643.53
2023-05-14T08:37:57.691Z,99627.00
2023-05-14T08:43:00.710Z,99626.06
2023-05-14T08:48:08.978Z,99621.78
2023-05-14T08:53:10.877Z,99583.06
2023-05-14T08:58:12.514Z,99602.59
2023-05-14T09:03:15.066Z,99600.03
2023-05-14T09:08:16.655Z,99607.00
2023-05-14T09:13:18.348Z,99620.22
2023-05-14T09:18:20.313Z,99555.53
2023-05-14T09:23:22.296Z,99583.72
2023-05-14T09:28:24.418Z,99577.75
2023-05-14T09:33:28.332Z,99610.16
2023-05-14T09:38:33.401Z,99552.59
2023-05-14T09:43:35.043Z,99583.66
2023-05-14T09:48:36.905Z,99538.06
2023-05-14T09:53:38.702Z,99545.84
2023-05-14T09:58:40.347Z,99576.84
2023-05-14T10:03:41.904Z,99559.31
2023-05-14T10:08:49.189Z,99563.66
2023-05-14T10:14:03.469Z,99534.47
2023-05-14T10:19:10.267Z,99509.53
2023-05-14T10:24:12.986Z,99583.66
2023-05-14T10:29:14.712Z,99504.31
2023-05-14T10:34:33.430Z,99527.56
2023-05-14T10:39:43.148Z,99538.03
2023-05-14T10:45:00.346Z,99486.41
2023-05-14T10:50:04.968Z,99519.09
2023-05-14T10:55:16.165Z,99533.50
2023-05-14T11:00:17.902Z,99532.19
2023-05-14T11:06:28.341Z,99564.25
2023-05-14T11:11:30.089Z,99559.66
2023-05-14T11:16:31.716Z,99522.06
2023-05-14T11:21:33.576Z,99551.31
2023-05-14T11:26:35.828Z,99501.00
2023-05-14T11:31:38.289Z,99459.19
2023-05-14T11:36:40.513Z,99456.00
2023-05-14T11:41:46.177Z,99467.81
2023-05-14T11:46:57.946Z,99473.84
2023-05-14T11:52:00.782Z,99514.06
2023-05-14T11:57:07.744Z,99422.13
2023-05-14T12:02:11.974Z,99456.16
2023-05-14T12:07:15.849Z,99419.91
2023-05-14T12:12:22.252Z,99380.75
2023-05-14T12:17:24.004Z,99438.59
2023-05-14T12:22:25.656Z,99491.38
2023-05-14T12:27:29.727Z,99460.88
2023-05-14T12:32:35.632Z,99424.97
2023-05-14T12:37:39.865Z,99444.69
2023-05-14T12:42:41.542Z,99379.38
2023-05-14T12:47:43.250Z,99383.75
2023-05-14T12:52:44.995Z,99423.47
2023-05-14T12:57:46.636Z,99398.09
2023-05-14T13:02:48.302Z,99414.28
2023-05-14T13:07:49.921Z,99363.97
2023-05-14T13:12:52.743Z,99408.38
2023-05-14T13:17:54.341Z,99348.25
2023-05-14T13:22:55.896Z,99380.44
2023-05-14T13:27:57.448Z,99343.13
2023-05-14T13:32:59.842Z,99316.94
2023-05-14T13:38:01.515Z,99347.78
2023-05-14T13:43:03.185Z,99355.63
2023-05-14T13:48:04.886Z,99354.59
2023-05-14T13:53:06.556Z,99370.31
2023-05-14T13:58:09.972Z,99359.19
2023-05-14T14:03:11.634Z,99353.31
2023-05-14T14:13:23.442Z,99312.22
2023-05-14T14:18:25.156Z,99352.25
2023-05-14T14:23:26.767Z,99323.97
2023-05-14T14:28:28.473Z,99333.22
2023-05-14T14:33:30.087Z,99295.75
2023-05-14T14:38:31.864Z,99311.16
2023-05-14T14:43:43.525Z,99302.25
2023-05-14T14:48:45.176Z,99269.59
2023-05-14T14:53:46.771Z,99289.41
2023-05-14T14:58:48.401Z,99262.16
2023-05-14T15:03:50.071Z,99291.59
2023-05-14T15:08:51.662Z,99283.72
2023-05-14T15:13:53.357Z,99265.50
2023-05-14T15:18:55.153Z,99278.03
2023-05-14T15:23:56.949Z,99272.97
2023-05-14T15:28:59.046Z,99277.56
2023-05-14T15:34:00.965Z,99260.38
2023-05-14T15:39:02.655Z,99283.09
2023-05-14T15:44:04.397Z,99239.78
2023-05-14T15:49:06.129Z,99214.47
2023-05-14T15:54:07.782Z,99288.97
2023-05-14T15:59:09.440Z,99268.75
2023-05-14T16:04:11.040Z,99187.28
2023-05-14T16:09:12.721Z,99234.50
2023-05-14T16:14:14.310Z,99189.50
2023-05-14T16:19:16.323Z,99215.63
2023-05-14T16:24:18.625Z,99218.91
2023-05-14T16:29:20.292Z,99176.94
2023-05-14T16:34:21.859Z,99150.69
2023-05-14T16:39:23.516Z,99248.13
2023-05-14T16:44:25.076Z,99238.75
2023-05-14T16:49:26.734Z,99211.75
2023-05-14T16:54:28.372Z,99168.78
2023-05-14T16:59:29.972Z,99180.19
2023-05-14T17:04:32.949Z,99185.06
2023-05-14T17:09:34.571Z,99172.09
2023-05-14T17:14:36.135Z,99202.75
2023-05-14T17:19:37.730Z,99213.19
2023-05-14T17:24:39.264Z,99173.13
2023-05-14T17:29:40.994Z,99153.34
2023-05-14T17:34:42.624Z,99174.69
2023-05-14T17:39:44.264Z,99212.38
2023-05-14T17:44:46.073Z,99107.03
2023-05-14T17:49:47.887Z,99229.88
2023-05-14T17:54:49.456Z,99217.66
2023-05-14T17:59:51.013Z,99195.44
2023-05-14T18:04:52.565Z,99180.81
2023-05-14T18:09:54.109Z,99244.72
2023-05-14T18:14:55.806Z,99212.03
2023-05-14T18:19:57.347Z,99238.47
2023-05-14T18:24:58.914Z,99208.03
2023-05-14T18:30:00.564Z,99214.25
2023-05-14T18:35:02.186Z,99223.09
2023-05-14T18:40:11.244Z,99266.56
2023-05-14T18:45:12.823Z,99224.03
2023-05-14T18:50:14.555Z,99248.19
2023-05-14T18:55:16.229Z,99251.09
2023-05-14T19:00:18.039Z,99251.38
2023-05-14T19:05:19.799Z,99236.69
2023-05-14T19:10:21.467Z,99272.88
2023-05-14T19:15:23.587Z,99260.19
2023-05-14T19:20:25.509Z,99291.16
2023-05-14T19:25:27.910Z,99256.38
2023-05-14T19:30:29.765Z,99270.16
2023-05-14T19:35:31.631Z,99308.56
2023-05-14T19:40:33.264Z,99274.09
2023-05-14T19:45:39.383Z,99281.66
2023-05-14T19:50:41.527Z,99319.09
2023-05-14T19:55:43.120Z,99294.69
2023-05-14T20:00:44.846Z,99325.66
2023-05-14T20:05:46.516Z,99292.94
2023-05-14T20:10:48.801Z,99291.19
2023-05-14T20:15:50.350Z,99333.47
2023-05-14T20:20:52.015Z,99338.19
2023-05-14T20:25:53.589Z,99329.22
2023-05-14T20:30:55.366Z,99326.66
2023-05-14T20:35:57.045Z,99347.25
2023-05-14T20:40:58.638Z,99326.94
2023-05-14T20:46:00.779Z,99315.13
2023-05-14T20:51:04.867Z,99352.41
2023-05-14T20:56:06.826Z,99356.41
2023-05-14T21:01:09.468Z,99313.38
2023-05-14T21:06:11.091Z,99366.06
2023-05-14T21:11:12.698Z,99357.03
2023-05-14T21:16:14.293Z,99325.13
2023-05-14T21:21:15.872Z,99373.06
2023-05-14T21:26:17.615Z,99349.44
2023-05-14T21:31:19.237Z,99352.19
2023-05-14T21:36:21.241Z,99375.41
2023-05-14T21:41:22.782Z,99334.91
2023-05-14T21:46:24.477Z,99380.03
2023-05-14T21:51:26.172Z,99363.28
2023-05-14T21:56:27.914Z,99367.09
2023-05-14T22:01:29.681Z,99377.34
2023-05-14T22:06:32.345Z,99305.56
2023-05-14T22:11:33.941Z,99342.97
2023-05-14T22:16:35.586Z,99392.34
2023-05-14T22:21:37.161Z,99401.66
2023-05-14T22:26:38.752Z,99376.69
2023-05-14T22:31:40.509Z,99420.47
2023-05-14T22:36:42.143Z,99413.22
2023-05-14T22:41:43.677Z,99388.06
2023-05-14T22:46:45.392Z,99395.16
2023-05-14T22:51:46.992Z,99365.53
2023-05-14T22:56:48.577Z,99420.75
2023-05-14T23:01:50.476Z,99404.19
2023-05-14T23:06:52.272Z,99407.88
2023-05-14T23:11:54.065Z,99412.34
2023-05-14T23:16:55.646Z,99409.66
2023-05-14T23:21:58.315Z,99404.00
2023-05-14T23:27:00.020Z,99404.91
2023-05-14T23:32:01.643Z,99374.22
2023-05-14T23:37:03.233Z,99373.00
2023-05-14T23:42:04.856Z,99392.41
2023-05-14T23:47:07.410Z,99407.41
2023-05-14T23:52:09.046Z,99397.47
2023-05-14T23:57:12.964Z,99352.06
